Longview, WA

5:34 AM PDT on October 24, 2014 (GMT -0700)
Scappoose Industrial | Change Station
CLOSE
Current Station
Airport
Location: Scappoose,
Elevation: 17 m
Nearby Weather Stations
Active Advisory: Special Statement

Elev 17 m 45.77 °N, 122.86 °W | Updated 41 minutes ago

Clear
Clear
10 °C
Feels Like 10 °C
N
0
Wind Variable Wind from North

Today
High -- | Low -- °C
--% Chance of Precip.
Yesterday
High -- | Low -- °C
Precip. -- mm
7:41 AM 6:10 PM
New Moon, 0% visible
Pressure 1016 hPa
Visibility 16.1 kilometers
Clouds Overcast 243 m
Dew Point 9 °C
Humidity 96%
Rainfall 3.3 mm
Snow Depth Not available.
UV 0 out of 12
Pollen .40 out of 12
Air Quality Not available.
Flu Activity Sporadic
METAR KSPB 241153Z AUTO 00000KT 10SM OVC008 10/09 A3002 RMK AO2 SLP165 60013 70037 T01000094 10117 20094 58001

More Conditions Fewer Conditions

Pressure 1016 hPa
Visibility 16.1 kilometers
Clouds Overcast 243 m
Dew Point 9 °C
Humidity 96%
Rainfall 3.3 mm
Snow Depth Not available.
UV 0 out of 12
Pollen .40 out of 12
Air Quality Not available.
Flu Activity Sporadic
METAR KSPB 241153Z AUTO 00000KT 10SM OVC008 10/09 A3002 RMK AO2 SLP165 60013 70037 T01000094 10117 20094 58001

More Conditions Fewer Conditions

10-Day Weather Forecast

Almanac

Astronomy

Oct. 24, 2014 Rise Set
Actual Time 7:41 AM PDT 6:10 PM PDT
Civil Twilight 7:11 AM PDT 6:40 PM PDT
Nautical Twilight 6:36 AM PDT 7:15 PM PDT
Astronomical Twilight 6:01 AM PDT 7:50 PM PDT
Moon 8:28 AM PDT 6:51 PM PDT
Length of Visible Light 11h 29m
Length of Day
10h 28m
Tomorrow will be 3m 3s shorter.
New Moon, 0% of the Moon is Illuminated
Today
New Moon
Oct 30
First Quarter
Nov 6
Full
Nov 14
Last Quarter
Nov 22
New

Today's Extremes

State Highs State Lows

Community

WunderPhotos

Upload Photos

1,764,544 photos uploaded!

Nearby

Snow Depth

Station Depth Elevation
Sheep Canyon 0 in 4030 ft
Swift Creek 1 in 3770 ft
Spirit Lake 0 in 3120 ft
June Lake 0 in 3340 ft
Spencer Meadow 0 in 3400 ft

Earthquake Activity

City Distance Mag. Time & Date
No recent earthquake activity has been reported nearby.
Minimum magnitude displayed is 2.5.

Coastal Water Temperatures

Place Temperature
Astoria, OR 16.1 °C
Westport, WA 15.0 °C

Nearby Weather Stations